sensor_id;sensor_type;location;lat;lon;timestamp;temperature;humidity
1461;DHT22;724;49.910;12.530;2022-12-16T00:02:14;-4.80;99.90
1461;DHT22;724;49.910;12.530;2022-12-16T00:04:41;-4.80;99.90
1461;DHT22;724;49.910;12.530;2022-12-16T00:07:07;-4.80;99.90
1461;DHT22;724;49.910;12.530;2022-12-16T00:09:34;-4.80;99.90
1461;DHT22;724;49.910;12.530;2022-12-16T00:12:01;-4.80;99.90
1461;DHT22;724;49.910;12.530;2022-12-16T00:14:27;-4.80;99.90
1461;DHT22;724;49.910;12.530;2022-12-16T00:16:56;-4.80;99.90
1461;DHT22;724;49.910;12.530;2022-12-16T00:19:22;-4.80;99.90
1461;DHT22;724;49.910;12.530;2022-12-16T00:21:49;-4.80;99.90
1461;DHT22;724;49.910;12.530;2022-12-16T00:24:16;-4.90;99.90
1461;DHT22;724;49.910;12.530;2022-12-16T00:26:43;-4.80;99.90
1461;DHT22;724;49.910;12.530;2022-12-16T00:29:09;-4.80;99.90
1461;DHT22;724;49.910;12.530;2022-12-16T00:31:36;-4.80;1.00
1461;DHT22;724;49.910;12.530;2022-12-16T00:34:04;-4.80;1.00
1461;DHT22;724;49.910;12.530;2022-12-16T00:36:31;-4.80;1.00
1461;DHT22;724;49.910;12.530;2022-12-16T00:38:58;-4.70;1.00
1461;DHT22;724;49.910;12.530;2022-12-16T00:41:24;-4.80;1.00
1461;DHT22;724;49.910;12.530;2022-12-16T00:43:51;-4.80;1.00
1461;DHT22;724;49.910;12.530;2022-12-16T00:46:18;-4.70;1.00
1461;DHT22;724;49.910;12.530;2022-12-16T00:48:44;-4.70;1.00
1461;DHT22;724;49.910;12.530;2022-12-16T00:51:12;-4.70;1.00
1461;DHT22;724;49.910;12.530;2022-12-16T00:53:39;-4.70;1.00
1461;DHT22;724;49.910;12.530;2022-12-16T00:56:08;-4.70;1.00
1461;DHT22;724;49.910;12.530;2022-12-16T00:58:35;-4.80;1.00
1461;DHT22;724;49.910;12.530;2022-12-16T01:01:03;-4.80;1.00
1461;DHT22;724;49.910;12.530;2022-12-16T01:03:30;-4.80;1.00
1461;DHT22;724;49.910;12.530;2022-12-16T01:05:56;-4.80;1.00
1461;DHT22;724;49.910;12.530;2022-12-16T01:08:25;-4.70;1.00
1461;DHT22;724;49.910;12.530;2022-12-16T01:10:54;-4.70;1.00
1461;DHT22;724;49.910;12.530;2022-12-16T01:13:21;-4.80;1.00
1461;DHT22;724;49.910;12.530;2022-12-16T01:15:49;-4.80;64.50
1461;DHT22;724;49.910;12.530;2022-12-16T01:18:16;-4.80;99.90
1461;DHT22;724;49.910;12.530;2022-12-16T01:20:43;-4.90;1.00
1461;DHT22;724;49.910;12.530;2022-12-16T01:23:10;-4.90;1.00
1461;DHT22;724;49.910;12.530;2022-12-16T01:25:38;-4.90;1.00
1461;DHT22;724;49.910;12.530;2022-12-16T01:28:04;-4.80;99.90
1461;DHT22;724;49.910;12.530;2022-12-16T01:30:31;-4.70;99.90
1461;DHT22;724;49.910;12.530;2022-12-16T01:32:58;-4.70;99.90
1461;DHT22;724;49.910;12.530;2022-12-16T01:35:24;-4.80;99.90
1461;DHT22;724;49.910;12.530;2022-12-16T01:37:51;-4.70;1.00
1461;DHT22;724;49.910;12.530;2022-12-16T01:40:22;-4.80;1.00
1461;DHT22;724;49.910;12.530;2022-12-16T01:42:51;-4.60;1.00
1461;DHT22;724;49.910;12.530;2022-12-16T01:45:32;-4.60;1.00
1461;DHT22;724;49.910;12.530;2022-12-16T01:48:02;-4.70;1.00
1461;DHT22;724;49.910;12.530;2022-12-16T01:50:30;-4.60;1.00
1461;DHT22;724;49.910;12.530;2022-12-16T01:52:59;-4.60;1.00
1461;DHT22;724;49.910;12.530;2022-12-16T01:55:31;-4.60;1.00
1461;DHT22;724;49.910;12.530;2022-12-16T01:58:04;-4.60;1.00
1461;DHT22;724;49.910;12.530;2022-12-16T02:00:33;-4.60;1.00
1461;DHT22;724;49.910;12.530;2022-12-16T02:03:00;-4.60;1.00
1461;DHT22;724;49.910;12.530;2022-12-16T02:05:27;-4.60;1.00
1461;DHT22;724;49.910;12.530;2022-12-16T02:07:59;-4.60;1.00
1461;DHT22;724;49.910;12.530;2022-12-16T02:10:32;-4.70;1.00
1461;DHT22;724;49.910;12.530;2022-12-16T02:13:12;-4.60;61.30
1461;DHT22;724;49.910;12.530;2022-12-16T02:15:43;-4.60;54.50
1461;DHT22;724;49.910;12.530;2022-12-16T02:18:16;-4.60;68.20
1461;DHT22;724;49.910;12.530;2022-12-16T02:21:06;-4.60;52.80
1461;DHT22;724;49.910;12.530;2022-12-16T02:27:02;-4.50;28.30
1461;DHT22;724;49.910;12.530;2022-12-16T02:29:56;-4.50;49.60
1461;DHT22;724;49.910;12.530;2022-12-16T02:32:33;-4.70;65.60
1461;DHT22;724;49.910;12.530;2022-12-16T02:35:09;-4.60;99.90
1461;DHT22;724;49.910;12.530;2022-12-16T02:37:40;-4.50;99.90
1461;DHT22;724;49.910;12.530;2022-12-16T02:40:14;-4.50;1.00
1461;DHT22;724;49.910;12.530;2022-12-16T02:42:46;-4.60;1.00
1461;DHT22;724;49.910;12.530;2022-12-16T02:45:16;-4.50;1.00
1461;DHT22;724;49.910;12.530;2022-12-16T02:47:45;-4.60;1.00
1461;DHT22;724;49.910;12.530;2022-12-16T02:50:17;-4.60;1.00
1461;DHT22;724;49.910;12.530;2022-12-16T02:52:44;-4.50;1.00
1461;DHT22;724;49.910;12.530;2022-12-16T02:55:12;-4.60;1.00
1461;DHT22;724;49.910;12.530;2022-12-16T02:58:09;-4.50;1.00
1461;DHT22;724;49.910;12.530;2022-12-16T03:00:46;-4.50;1.00
1461;DHT22;724;49.910;12.530;2022-12-16T03:03:20;-4.60;1.00
1461;DHT22;724;49.910;12.530;2022-12-16T03:05:53;-4.60;1.00
1461;DHT22;724;49.910;12.530;2022-12-16T03:08:26;-4.80;1.00
1461;DHT22;724;49.910;12.530;2022-12-16T03:10:57;-4.80;1.00
1461;DHT22;724;49.910;12.530;2022-12-16T03:13:26;-4.70;1.00
1461;DHT22;724;49.910;12.530;2022-12-16T03:15:56;-4.70;1.00
1461;DHT22;724;49.910;12.530;2022-12-16T03:18:26;-4.80;1.00
1461;DHT22;724;49.910;12.530;2022-12-16T03:20:55;-4.80;1.00
1461;DHT22;724;49.910;12.530;2022-12-16T03:23:28;-4.80;1.00
1461;DHT22;724;49.910;12.530;2022-12-16T03:26:01;-4.80;1.00
1461;DHT22;724;49.910;12.530;2022-12-16T03:28:37;-4.80;14.40
1461;DHT22;724;49.910;12.530;2022-12-16T03:31:11;-4.70;99.90
1461;DHT22;724;49.910;12.530;2022-12-16T03:33:45;-4.80;99.90
1461;DHT22;724;49.910;12.530;2022-12-16T03:36:15;-4.90;99.90
1461;DHT22;724;49.910;12.530;2022-12-16T03:38:44;-4.80;99.90
1461;DHT22;724;49.910;12.530;2022-12-16T03:41:13;-4.70;99.90
1461;DHT22;724;49.910;12.530;2022-12-16T03:43:42;-4.80;1.00
1461;DHT22;724;49.910;12.530;2022-12-16T03:46:09;-4.80;1.00
1461;DHT22;724;49.910;12.530;2022-12-16T03:48:45;-4.80;1.00
1461;DHT22;724;49.910;12.530;2022-12-16T03:51:12;-4.80;1.00
1461;DHT22;724;49.910;12.530;2022-12-16T03:53:40;-4.80;1.00
1461;DHT22;724;49.910;12.530;2022-12-16T03:56:07;-4.70;1.00
1461;DHT22;724;49.910;12.530;2022-12-16T03:58:33;-4.70;1.00
1461;DHT22;724;49.910;12.530;2022-12-16T04:01:02;-4.80;1.00
1461;DHT22;724;49.910;12.530;2022-12-16T04:03:28;-4.80;1.00
1461;DHT22;724;49.910;12.530;2022-12-16T04:05:56;-4.70;1.00
1461;DHT22;724;49.910;12.530;2022-12-16T04:08:23;-4.70;1.00
1461;DHT22;724;49.910;12.530;2022-12-16T04:10:50;-4.70;1.00
1461;DHT22;724;49.910;12.530;2022-12-16T04:13:34;-4.60;1.00
1461;DHT22;724;49.910;12.530;2022-12-16T04:16:19;-4.60;1.00
1461;DHT22;724;49.910;12.530;2022-12-16T04:19:03;-4.60;1.00
1461;DHT22;724;49.910;12.530;2022-12-16T04:21:49;-4.50;1.00
1461;DHT22;724;49.910;12.530;2022-12-16T04:24:34;-4.60;1.00
1461;DHT22;724;49.910;12.530;2022-12-16T04:27:01;-4.60;1.00
1461;DHT22;724;49.910;12.530;2022-12-16T04:29:45;-4.50;1.00
1461;DHT22;724;49.910;12.530;2022-12-16T04:32:26;-4.50;1.00
1461;DHT22;724;49.910;12.530;2022-12-16T04:35:13;-4.50;45.10
1461;DHT22;724;49.910;12.530;2022-12-16T04:37:55;-4.50;99.90
1461;DHT22;724;49.910;12.530;2022-12-16T04:40:35;-4.40;99.90
1461;DHT22;724;49.910;12.530;2022-12-16T04:43:20;-4.30;99.90
1461;DHT22;724;49.910;12.530;2022-12-16T04:46:04;-4.30;99.90
1461;DHT22;724;49.910;12.530;2022-12-16T04:48:48;-4.30;99.90
1461;DHT22;724;49.910;12.530;2022-12-16T04:51:32;-4.30;99.90
1461;DHT22;724;49.910;12.530;2022-12-16T04:54:28;-4.30;99.90
1461;DHT22;724;49.910;12.530;2022-12-16T04:57:13;-4.30;99.90
1461;DHT22;724;49.910;12.530;2022-12-16T04:59:57;-4.30;99.90
1461;DHT22;724;49.910;12.530;2022-12-16T05:02:41;-4.30;99.90
1461;DHT22;724;49.910;12.530;2022-12-16T05:05:25;-4.20;1.00
1461;DHT22;724;49.910;12.530;2022-12-16T05:08:09;-4.20;1.00
1461;DHT22;724;49.910;12.530;2022-12-16T05:10:55;-4.20;1.00
1461;DHT22;724;49.910;12.530;2022-12-16T05:13:39;-4.20;1.00
1461;DHT22;724;49.910;12.530;2022-12-16T05:16:23;-4.10;1.00
1461;DHT22;724;49.910;12.530;2022-12-16T05:19:07;-4.10;1.00
1461;DHT22;724;49.910;12.530;2022-12-16T05:21:51;-4.10;1.00
1461;DHT22;724;49.910;12.530;2022-12-16T05:24:36;-4.10;1.00
1461;DHT22;724;49.910;12.530;2022-12-16T05:27:21;-4.00;1.00
1461;DHT22;724;49.910;12.530;2022-12-16T05:30:06;-3.90;1.00
1461;DHT22;724;49.910;12.530;2022-12-16T05:32:50;-3.90;1.00
1461;DHT22;724;49.910;12.530;2022-12-16T05:35:35;-3.90;1.00
1461;DHT22;724;49.910;12.530;2022-12-16T05:38:19;-3.80;1.00
1461;DHT22;724;49.910;12.530;2022-12-16T05:41:03;-3.80;1.00
1461;DHT22;724;49.910;12.530;2022-12-16T05:43:48;-3.80;1.00
1461;DHT22;724;49.910;12.530;2022-12-16T05:46:33;-3.80;1.00
1461;DHT22;724;49.910;12.530;2022-12-16T05:49:17;-3.80;1.00
1461;DHT22;724;49.910;12.530;2022-12-16T05:52:01;-3.80;99.90
1461;DHT22;724;49.910;12.530;2022-12-16T05:54:45;-3.80;99.90
1461;DHT22;724;49.910;12.530;2022-12-16T05:57:29;-3.70;99.90
1461;DHT22;724;49.910;12.530;2022-12-16T06:00:15;-3.70;99.90
1461;DHT22;724;49.910;12.530;2022-12-16T06:02:59;-3.70;99.90
1461;DHT22;724;49.910;12.530;2022-12-16T06:05:44;-3.70;99.90
1461;DHT22;724;49.910;12.530;2022-12-16T06:08:28;-3.80;47.40
1461;DHT22;724;49.910;12.530;2022-12-16T06:11:12;-3.80;1.00
1461;DHT22;724;49.910;12.530;2022-12-16T06:13:56;-3.80;1.00
1461;DHT22;724;49.910;12.530;2022-12-16T06:16:50;-3.70;1.00
1461;DHT22;724;49.910;12.530;2022-12-16T06:19:34;-3.70;1.00
1461;DHT22;724;49.910;12.530;2022-12-16T06:22:18;-3.70;1.00
1461;DHT22;724;49.910;12.530;2022-12-16T06:25:03;-3.70;1.00
1461;DHT22;724;49.910;12.530;2022-12-16T06:27:49;-3.70;1.00
1461;DHT22;724;49.910;12.530;2022-12-16T06:30:34;-3.60;1.00
1461;DHT22;724;49.910;12.530;2022-12-16T06:33:19;-3.60;1.00
1461;DHT22;724;49.910;12.530;2022-12-16T06:36:04;-3.60;1.00
1461;DHT22;724;49.910;12.530;2022-12-16T06:38:51;-3.60;1.00
1461;DHT22;724;49.910;12.530;2022-12-16T06:41:35;-3.60;99.90
1461;DHT22;724;49.910;12.530;2022-12-16T06:44:19;-3.60;99.90
1461;DHT22;724;49.910;12.530;2022-12-16T06:47:04;-3.50;99.90
1461;DHT22;724;49.910;12.530;2022-12-16T06:49:49;-3.50;99.90
1461;DHT22;724;49.910;12.530;2022-12-16T06:52:34;-3.50;99.90
1461;DHT22;724;49.910;12.530;2022-12-16T06:55:18;-3.50;99.90
1461;DHT22;724;49.910;12.530;2022-12-16T06:58:02;-3.50;53.90
1461;DHT22;724;49.910;12.530;2022-12-16T07:00:46;-3.50;1.00
1461;DHT22;724;49.910;12.530;2022-12-16T07:03:31;-3.50;8.70
1461;DHT22;724;49.910;12.530;2022-12-16T07:06:16;-3.50;29.10
1461;DHT22;724;49.910;12.530;2022-12-16T07:09:00;-3.50;51.40
1461;DHT22;724;49.910;12.530;2022-12-16T07:11:45;-3.40;26.50
1461;DHT22;724;49.910;12.530;2022-12-16T07:14:29;-3.40;1.00
1461;DHT22;724;49.910;12.530;2022-12-16T07:17:13;-3.40;1.00
1461;DHT22;724;49.910;12.530;2022-12-16T07:19:57;-3.30;1.00
1461;DHT22;724;49.910;12.530;2022-12-16T07:22:43;-3.30;1.00
1461;DHT22;724;49.910;12.530;2022-12-16T07:25:28;-3.30;1.00
1461;DHT22;724;49.910;12.530;2022-12-16T07:28:12;-3.20;1.00
1461;DHT22;724;49.910;12.530;2022-12-16T07:30:57;-3.20;1.00
1461;DHT22;724;49.910;12.530;2022-12-16T07:33:41;-3.20;1.00
1461;DHT22;724;49.910;12.530;2022-12-16T07:36:34;-3.20;1.00
1461;DHT22;724;49.910;12.530;2022-12-16T07:39:28;-3.30;99.90
1461;DHT22;724;49.910;12.530;2022-12-16T07:42:12;-3.10;99.90
1461;DHT22;724;49.910;12.530;2022-12-16T07:44:56;-3.10;99.90
1461;DHT22;724;49.910;12.530;2022-12-16T07:47:45;-3.10;99.90
1461;DHT22;724;49.910;12.530;2022-12-16T07:50:30;-3.00;99.90
1461;DHT22;724;49.910;12.530;2022-12-16T07:53:14;-3.10;99.90
1461;DHT22;724;49.910;12.530;2022-12-16T07:55:59;-3.10;99.90
1461;DHT22;724;49.910;12.530;2022-12-16T07:58:44;-3.00;99.90
1461;DHT22;724;49.910;12.530;2022-12-16T08:01:28;-3.00;99.90
1461;DHT22;724;49.910;12.530;2022-12-16T08:04:13;-3.00;99.90
1461;DHT22;724;49.910;12.530;2022-12-16T08:06:57;-3.00;99.90
1461;DHT22;724;49.910;12.530;2022-12-16T08:09:41;-2.80;99.90
1461;DHT22;724;49.910;12.530;2022-12-16T08:12:27;-2.80;99.90
1461;DHT22;724;49.910;12.530;2022-12-16T08:15:11;-2.80;87.80
1461;DHT22;724;49.910;12.530;2022-12-16T08:17:55;-2.70;1.00
1461;DHT22;724;49.910;12.530;2022-12-16T08:20:39;-2.70;1.00
1461;DHT22;724;49.910;12.530;2022-12-16T08:23:23;-2.70;1.00
1461;DHT22;724;49.910;12.530;2022-12-16T08:26:08;-2.60;1.00
1461;DHT22;724;49.910;12.530;2022-12-16T08:28:53;-2.70;99.90
1461;DHT22;724;49.910;12.530;2022-12-16T08:31:37;-2.70;99.90
1461;DHT22;724;49.910;12.530;2022-12-16T08:34:21;-2.60;21.70
1461;DHT22;724;49.910;12.530;2022-12-16T08:37:06;-2.60;1.00
1461;DHT22;724;49.910;12.530;2022-12-16T08:39:50;-2.60;1.00
1461;DHT22;724;49.910;12.530;2022-12-16T08:42:35;-2.60;1.00
1461;DHT22;724;49.910;12.530;2022-12-16T08:45:23;-2.60;1.00
1461;DHT22;724;49.910;12.530;2022-12-16T08:48:07;-2.50;1.00
1461;DHT22;724;49.910;12.530;2022-12-16T08:50:51;-2.50;1.00
1461;DHT22;724;49.910;12.530;2022-12-16T08:53:35;-2.50;99.90
1461;DHT22;724;49.910;12.530;2022-12-16T08:56:19;-2.40;99.90
1461;DHT22;724;49.910;12.530;2022-12-16T08:59:04;-2.30;99.90
1461;DHT22;724;49.910;12.530;2022-12-16T09:01:49;-2.20;99.90
1461;DHT22;724;49.910;12.530;2022-12-16T09:04:34;-2.10;99.90
1461;DHT22;724;49.910;12.530;2022-12-16T09:07:19;-1.90;99.90
1461;DHT22;724;49.910;12.530;2022-12-16T09:10:04;-1.80;63.60
1461;DHT22;724;49.910;12.530;2022-12-16T09:12:49;-1.70;1.00
1461;DHT22;724;49.910;12.530;2022-12-16T09:15:33;-1.60;1.00
1461;DHT22;724;49.910;12.530;2022-12-16T09:18:18;-1.40;1.00
1461;DHT22;724;49.910;12.530;2022-12-16T09:21:02;-1.40;1.00
1461;DHT22;724;49.910;12.530;2022-12-16T09:23:47;-1.20;1.00
1461;DHT22;724;49.910;12.530;2022-12-16T09:26:31;-1.10;1.00
1461;DHT22;724;49.910;12.530;2022-12-16T09:29:16;-1.10;1.00
1461;DHT22;724;49.910;12.530;2022-12-16T09:32:00;-1.00;1.00
1461;DHT22;724;49.910;12.530;2022-12-16T09:34:45;-1.00;1.00
1461;DHT22;724;49.910;12.530;2022-12-16T09:37:29;-1.00;1.00
1461;DHT22;724;49.910;12.530;2022-12-16T09:40:15;-1.20;1.00
1461;DHT22;724;49.910;12.530;2022-12-16T09:43:05;-1.40;1.00
1461;DHT22;724;49.910;12.530;2022-12-16T09:45:59;-1.10;1.00
1461;DHT22;724;49.910;12.530;2022-12-16T09:48:50;-0.80;1.00
1461;DHT22;724;49.910;12.530;2022-12-16T09:51:42;-0.90;1.00
1461;DHT22;724;49.910;12.530;2022-12-16T09:54:30;-1.00;1.00
1461;DHT22;724;49.910;12.530;2022-12-16T09:57:17;-1.30;1.00
1461;DHT22;724;49.910;12.530;2022-12-16T10:00:05;-0.90;1.00
1461;DHT22;724;49.910;12.530;2022-12-16T10:02:50;-1.40;1.00
1461;DHT22;724;49.910;12.530;2022-12-16T10:05:40;-1.30;1.00
1461;DHT22;724;49.910;12.530;2022-12-16T10:08:33;-1.50;1.00
1461;DHT22;724;49.910;12.530;2022-12-16T10:11:25;-1.00;1.00
1461;DHT22;724;49.910;12.530;2022-12-16T10:14:13;-1.00;1.00
1461;DHT22;724;49.910;12.530;2022-12-16T10:17:03;-0.70;1.00
1461;DHT22;724;49.910;12.530;2022-12-16T10:19:57;-0.40;1.00
1461;DHT22;724;49.910;12.530;2022-12-16T10:22:48;0.30;1.00
1461;DHT22;724;49.910;12.530;2022-12-16T10:25:38;0.80;1.00
1461;DHT22;724;49.910;12.530;2022-12-16T10:28:36;1.20;1.00
1461;DHT22;724;49.910;12.530;2022-12-16T10:31:25;2.00;1.00
1461;DHT22;724;49.910;12.530;2022-12-16T10:34:13;2.50;1.00
1461;DHT22;724;49.910;12.530;2022-12-16T10:36:59;2.70;99.90
1461;DHT22;724;49.910;12.530;2022-12-16T10:39:46;3.20;99.90
1461;DHT22;724;49.910;12.530;2022-12-16T10:42:39;3.20;99.90
1461;DHT22;724;49.910;12.530;2022-12-16T10:45:28;2.30;99.90
1461;DHT22;724;49.910;12.530;2022-12-16T10:48:13;2.30;99.90
1461;DHT22;724;49.910;12.530;2022-12-16T10:50:59;2.80;99.90
1461;DHT22;724;49.910;12.530;2022-12-16T10:53:45;2.00;99.90
1461;DHT22;724;49.910;12.530;2022-12-16T10:56:46;1.20;99.90
1461;DHT22;724;49.910;12.530;2022-12-16T10:59:37;0.50;99.90
1461;DHT22;724;49.910;12.530;2022-12-16T11:02:23;0.10;99.90
1461;DHT22;724;49.910;12.530;2022-12-16T11:05:29;0.00;99.90
1461;DHT22;724;49.910;12.530;2022-12-16T11:08:24;0.10;99.90
1461;DHT22;724;49.910;12.530;2022-12-16T11:11:17;-0.10;99.90
1461;DHT22;724;49.910;12.530;2022-12-16T11:14:17;-0.50;99.90
1461;DHT22;724;49.910;12.530;2022-12-16T11:17:14;-0.20;99.90
1461;DHT22;724;49.910;12.530;2022-12-16T11:20:16;-0.10;99.90
1461;DHT22;724;49.910;12.530;2022-12-16T11:23:23;0.20;99.90
1461;DHT22;724;49.910;12.530;2022-12-16T11:26:19;0.30;99.90
1461;DHT22;724;49.910;12.530;2022-12-16T11:29:10;0.40;99.90
1461;DHT22;724;49.910;12.530;2022-12-16T11:32:00;0.40;99.90
1461;DHT22;724;49.910;12.530;2022-12-16T11:34:50;0.50;99.90
1461;DHT22;724;49.910;12.530;2022-12-16T11:37:37;0.90;99.90
1461;DHT22;724;49.910;12.530;2022-12-16T11:40:23;0.80;99.90
1461;DHT22;724;49.910;12.530;2022-12-16T11:43:09;0.70;99.90
1461;DHT22;724;49.910;12.530;2022-12-16T11:45:56;0.50;99.90
1461;DHT22;724;49.910;12.530;2022-12-16T11:48:43;0.30;99.90
1461;DHT22;724;49.910;12.530;2022-12-16T11:51:33;-0.10;99.90
1461;DHT22;724;49.910;12.530;2022-12-16T11:54:22;-0.10;99.90
1461;DHT22;724;49.910;12.530;2022-12-16T11:57:16;-0.30;99.90
1461;DHT22;724;49.910;12.530;2022-12-16T12:00:14;-0.30;99.90
1461;DHT22;724;49.910;12.530;2022-12-16T12:03:04;-0.80;99.90
1461;DHT22;724;49.910;12.530;2022-12-16T12:05:56;-0.50;99.90
1461;DHT22;724;49.910;12.530;2022-12-16T12:08:49;-0.70;99.90
1461;DHT22;724;49.910;12.530;2022-12-16T12:11:37;-0.50;99.90
1461;DHT22;724;49.910;12.530;2022-12-16T12:14:32;-0.40;99.90
1461;DHT22;724;49.910;12.530;2022-12-16T12:17:25;-0.60;99.90
1461;DHT22;724;49.910;12.530;2022-12-16T12:20:37;-0.80;99.90
1461;DHT22;724;49.910;12.530;2022-12-16T12:23:42;-0.90;99.90
1461;DHT22;724;49.910;12.530;2022-12-16T12:26:31;-0.70;99.90
1461;DHT22;724;49.910;12.530;2022-12-16T12:29:20;-0.90;99.90
1461;DHT22;724;49.910;12.530;2022-12-16T12:32:18;-0.80;99.90
1461;DHT22;724;49.910;12.530;2022-12-16T12:35:19;-0.90;99.90
1461;DHT22;724;49.910;12.530;2022-12-16T12:38:13;-1.10;99.90
1461;DHT22;724;49.910;12.530;2022-12-16T12:41:01;-0.90;99.90
1461;DHT22;724;49.910;12.530;2022-12-16T12:43:55;-1.10;99.90
1461;DHT22;724;49.910;12.530;2022-12-16T12:46:46;-0.80;99.90
1461;DHT22;724;49.910;12.530;2022-12-16T12:49:36;-0.70;99.90
1461;DHT22;724;49.910;12.530;2022-12-16T12:52:58;-0.50;99.90
1461;DHT22;724;49.910;12.530;2022-12-16T12:55:56;-0.70;99.90
1461;DHT22;724;49.910;12.530;2022-12-16T12:58:48;-0.70;99.90
1461;DHT22;724;49.910;12.530;2022-12-16T13:01:37;-0.60;99.90
1461;DHT22;724;49.910;12.530;2022-12-16T13:04:24;-0.60;1.00
1461;DHT22;724;49.910;12.530;2022-12-16T13:07:10;-0.80;1.00
1461;DHT22;724;49.910;12.530;2022-12-16T13:10:11;-1.00;1.00
1461;DHT22;724;49.910;12.530;2022-12-16T13:13:25;-1.00;1.00
1461;DHT22;724;49.910;12.530;2022-12-16T13:16:11;-0.80;1.00
1461;DHT22;724;49.910;12.530;2022-12-16T13:22:27;-0.80;1.00
1461;DHT22;724;49.910;12.530;2022-12-16T13:25:30;-0.80;1.00
1461;DHT22;724;49.910;12.530;2022-12-16T13:28:20;-0.90;1.00
1461;DHT22;724;49.910;12.530;2022-12-16T13:31:07;-0.90;1.00
1461;DHT22;724;49.910;12.530;2022-12-16T13:33:53;-0.90;1.00
1461;DHT22;724;49.910;12.530;2022-12-16T13:36:38;-1.00;1.00
1461;DHT22;724;49.910;12.530;2022-12-16T13:39:25;-1.10;1.00
1461;DHT22;724;49.910;12.530;2022-12-16T13:45:34;-1.20;1.00
1461;DHT22;724;49.910;12.530;2022-12-16T13:48:31;-1.20;1.00
1461;DHT22;724;49.910;12.530;2022-12-16T13:54:50;-1.40;1.00
1461;DHT22;724;49.910;12.530;2022-12-16T13:57:39;-1.50;1.00
1461;DHT22;724;49.910;12.530;2022-12-16T14:00:25;-1.40;1.00
1461;DHT22;724;49.910;12.530;2022-12-16T14:03:14;-1.50;1.00
1461;DHT22;724;49.910;12.530;2022-12-16T14:06:03;-1.40;1.00
1461;DHT22;724;49.910;12.530;2022-12-16T14:08:51;-1.50;1.00
1461;DHT22;724;49.910;12.530;2022-12-16T14:11:44;-1.60;1.00
1461;DHT22;724;49.910;12.530;2022-12-16T14:14:34;-1.60;1.00
1461;DHT22;724;49.910;12.530;2022-12-16T14:17:24;-1.70;1.00
1461;DHT22;724;49.910;12.530;2022-12-16T14:20:14;-1.80;1.00
1461;DHT22;724;49.910;12.530;2022-12-16T14:23:05;-1.90;1.00
1461;DHT22;724;49.910;12.530;2022-12-16T14:25:56;-1.90;1.00
1461;DHT22;724;49.910;12.530;2022-12-16T14:28:46;-1.90;1.00
1461;DHT22;724;49.910;12.530;2022-12-16T14:31:36;-2.00;1.00
1461;DHT22;724;49.910;12.530;2022-12-16T14:34:24;-2.00;1.00
1461;DHT22;724;49.910;12.530;2022-12-16T14:37:12;-2.00;1.00
1461;DHT22;724;49.910;12.530;2022-12-16T14:40:19;-2.00;1.00
1461;DHT22;724;49.910;12.530;2022-12-16T14:43:10;-2.00;25.90
1461;DHT22;724;49.910;12.530;2022-12-16T14:45:56;-2.10;88.30
1461;DHT22;724;49.910;12.530;2022-12-16T14:48:45;-2.10;99.90
1461;DHT22;724;49.910;12.530;2022-12-16T14:51:31;-2.10;99.90
1461;DHT22;724;49.910;12.530;2022-12-16T14:54:21;-2.20;99.90
1461;DHT22;724;49.910;12.530;2022-12-16T14:57:11;-2.30;99.90
1461;DHT22;724;49.910;12.530;2022-12-16T15:00:00;-2.30;99.90
1461;DHT22;724;49.910;12.530;2022-12-16T15:02:49;-2.30;99.90
1461;DHT22;724;49.910;12.530;2022-12-16T15:05:36;-2.30;99.90
1461;DHT22;724;49.910;12.530;2022-12-16T15:08:21;-2.30;99.90
1461;DHT22;724;49.910;12.530;2022-12-16T15:11:07;-2.40;99.90
1461;DHT22;724;49.910;12.530;2022-12-16T15:13:56;-2.40;99.90
1461;DHT22;724;49.910;12.530;2022-12-16T15:16:42;-2.40;99.90
1461;DHT22;724;49.910;12.530;2022-12-16T15:19:30;-2.40;99.90
1461;DHT22;724;49.910;12.530;2022-12-16T15:22:16;-2.40;99.90
1461;DHT22;724;49.910;12.530;2022-12-16T15:25:00;-2.40;99.90
1461;DHT22;724;49.910;12.530;2022-12-16T15:27:52;-2.50;99.90
1461;DHT22;724;49.910;12.530;2022-12-16T15:30:38;-2.60;99.90
1461;DHT22;724;49.910;12.530;2022-12-16T15:33:25;-2.60;99.90
1461;DHT22;724;49.910;12.530;2022-12-16T15:36:23;-2.60;99.90
1461;DHT22;724;49.910;12.530;2022-12-16T15:39:18;-2.60;99.90
1461;DHT22;724;49.910;12.530;2022-12-16T15:42:03;-2.70;99.90
1461;DHT22;724;49.910;12.530;2022-12-16T15:44:49;-2.70;99.90
1461;DHT22;724;49.910;12.530;2022-12-16T15:47:36;-2.70;99.90
1461;DHT22;724;49.910;12.530;2022-12-16T15:50:23;-2.80;99.90
1461;DHT22;724;49.910;12.530;2022-12-16T15:53:28;-2.90;99.90
1461;DHT22;724;49.910;12.530;2022-12-16T15:56:19;-2.90;99.90
1461;DHT22;724;49.910;12.530;2022-12-16T15:59:23;-2.90;99.90
1461;DHT22;724;49.910;12.530;2022-12-16T16:02:05;-2.90;99.90
1461;DHT22;724;49.910;12.530;2022-12-16T16:04:53;-3.00;99.90
1461;DHT22;724;49.910;12.530;2022-12-16T16:07:37;-3.00;99.90
1461;DHT22;724;49.910;12.530;2022-12-16T16:10:23;-3.00;99.90
1461;DHT22;724;49.910;12.530;2022-12-16T16:13:09;-3.00;99.90
1461;DHT22;724;49.910;12.530;2022-12-16T16:15:53;-3.10;99.90
1461;DHT22;724;49.910;12.530;2022-12-16T16:18:38;-3.10;99.90
1461;DHT22;724;49.910;12.530;2022-12-16T16:21:22;-3.10;99.90
1461;DHT22;724;49.910;12.530;2022-12-16T16:24:07;-3.20;99.90
1461;DHT22;724;49.910;12.530;2022-12-16T16:26:53;-3.10;99.90
1461;DHT22;724;49.910;12.530;2022-12-16T16:29:38;-3.10;99.90
1461;DHT22;724;49.910;12.530;2022-12-16T16:32:23;-3.10;99.90
1461;DHT22;724;49.910;12.530;2022-12-16T16:35:07;-3.10;99.90
1461;DHT22;724;49.910;12.530;2022-12-16T16:37:51;-3.10;99.90
1461;DHT22;724;49.910;12.530;2022-12-16T16:40:37;-3.10;99.90
1461;DHT22;724;49.910;12.530;2022-12-16T16:43:24;-3.20;99.90
1461;DHT22;724;49.910;12.530;2022-12-16T16:46:22;-3.30;1.00
1461;DHT22;724;49.910;12.530;2022-12-16T16:49:09;-3.30;1.00
1461;DHT22;724;49.910;12.530;2022-12-16T16:51:54;-3.20;1.00
1461;DHT22;724;49.910;12.530;2022-12-16T16:54:38;-3.30;1.00
1461;DHT22;724;49.910;12.530;2022-12-16T16:57:23;-3.20;1.00
1461;DHT22;724;49.910;12.530;2022-12-16T17:00:10;-3.30;1.00
1461;DHT22;724;49.910;12.530;2022-12-16T17:02:55;-3.40;1.00
1461;DHT22;724;49.910;12.530;2022-12-16T17:05:39;-3.20;1.00
1461;DHT22;724;49.910;12.530;2022-12-16T17:08:23;-3.30;1.00
1461;DHT22;724;49.910;12.530;2022-12-16T17:11:15;-3.20;1.00
1461;DHT22;724;49.910;12.530;2022-12-16T17:14:03;-3.20;1.00
1461;DHT22;724;49.910;12.530;2022-12-16T17:16:51;-3.30;1.00
1461;DHT22;724;49.910;12.530;2022-12-16T17:19:36;-3.30;1.00
1461;DHT22;724;49.910;12.530;2022-12-16T17:22:20;-3.30;1.00
1461;DHT22;724;49.910;12.530;2022-12-16T17:25:05;-3.30;1.00
1461;DHT22;724;49.910;12.530;2022-12-16T17:27:49;-3.30;1.00
1461;DHT22;724;49.910;12.530;2022-12-16T17:30:33;-3.30;1.00
1461;DHT22;724;49.910;12.530;2022-12-16T17:33:19;-3.30;1.00
1461;DHT22;724;49.910;12.530;2022-12-16T17:36:03;-3.30;1.00
1461;DHT22;724;49.910;12.530;2022-12-16T17:38:48;-3.30;1.00
1461;DHT22;724;49.910;12.530;2022-12-16T17:41:33;-3.40;1.00
1461;DHT22;724;49.910;12.530;2022-12-16T17:44:17;-3.30;1.00
1461;DHT22;724;49.910;12.530;2022-12-16T17:47:02;-3.40;1.00
1461;DHT22;724;49.910;12.530;2022-12-16T17:49:47;-3.40;1.00
1461;DHT22;724;49.910;12.530;2022-12-16T17:52:32;-3.30;1.00
1461;DHT22;724;49.910;12.530;2022-12-16T17:55:16;-3.30;1.00
1461;DHT22;724;49.910;12.530;2022-12-16T17:58:06;-3.30;1.00
1461;DHT22;724;49.910;12.530;2022-12-16T18:00:50;-3.30;1.00
1461;DHT22;724;49.910;12.530;2022-12-16T18:03:34;-3.30;1.00
1461;DHT22;724;49.910;12.530;2022-12-16T18:06:20;-3.30;1.00
1461;DHT22;724;49.910;12.530;2022-12-16T18:09:04;-3.30;1.00
1461;DHT22;724;49.910;12.530;2022-12-16T18:11:48;-3.30;1.00